createdAt,value
2017-06-21T00:00:30.000Z,20.20
2017-06-21T00:02:57.538Z,20.20
2017-06-21T00:05:25.092Z,20.20
2017-06-21T00:07:52.619Z,20.20
2017-06-21T00:10:20.172Z,20.20
2017-06-21T00:12:47.699Z,20.20
2017-06-21T00:15:15.256Z,20.10
2017-06-21T00:17:43.559Z,19.90
2017-06-21T00:20:11.127Z,19.90
2017-06-21T00:22:38.655Z,19.90
2017-06-21T00:25:06.191Z,19.80
2017-06-21T00:27:33.743Z,19.80
2017-06-21T00:30:01.266Z,19.70
2017-06-21T00:32:29.583Z,19.50
2017-06-21T00:34:57.115Z,19.50
2017-06-21T00:37:24.662Z,19.40
2017-06-21T00:39:52.955Z,19.30
2017-06-21T00:42:20.525Z,19.20
2017-06-21T00:44:48.060Z,19.30
2017-06-21T00:47:16.359Z,19.30
2017-06-21T00:49:43.907Z,19.30
2017-06-21T00:52:11.440Z,19.30
2017-06-21T00:54:38.992Z,19.30
2017-06-21T00:57:06.519Z,19.10
2017-06-21T00:59:34.835Z,18.80
2017-06-21T01:02:02.366Z,18.80
2017-06-21T01:04:29.932Z,18.80
2017-06-21T01:06:57.503Z,18.60
2017-06-21T01:09:25.036Z,18.40
2017-06-21T01:11:52.592Z,18.50
2017-06-21T01:14:20.129Z,18.60
2017-06-21T01:16:47.688Z,18.70
2017-06-21T01:19:15.987Z,18.50
2017-06-21T01:21:43.535Z,18.50
2017-06-21T01:24:11.068Z,18.30
2017-06-21T01:26:38.614Z,18.20
2017-06-21T01:29:06.904Z,18.20
2017-06-21T01:31:34.455Z,18.10
2017-06-21T01:34:01.992Z,18.20
2017-06-21T01:36:29.559Z,18.20
2017-06-21T01:38:57.093Z,18.20
2017-06-21T01:41:24.624Z,18.40
2017-06-21T01:43:52.175Z,18.40
2017-06-21T01:46:19.708Z,18.40
2017-06-21T01:48:47.263Z,18.30
2017-06-21T01:51:14.800Z,18.20
2017-06-21T01:53:43.115Z,18.20
2017-06-21T01:56:10.649Z,18.20
2017-06-21T01:58:38.988Z,18.20
2017-06-21T02:01:06.520Z,18.20
2017-06-21T02:03:34.050Z,18.20
2017-06-21T02:06:01.608Z,18.30
2017-06-21T02:08:29.134Z,18.30
2017-06-21T02:10:57.450Z,18.30
2017-06-21T02:13:24.980Z,18.30
2017-06-21T02:15:53.296Z,18.30
2017-06-21T02:18:20.821Z,18.30
2017-06-21T02:20:48.383Z,18.40
2017-06-21T02:23:15.916Z,18.30
2017-06-21T02:25:43.449Z,18.30
2017-06-21T02:28:11.003Z,18.30
2017-06-21T02:30:39.304Z,18.30
2017-06-21T02:33:06.856Z,18.30
2017-06-21T02:35:34.383Z,18.30
2017-06-21T02:38:02.695Z,18.20
2017-06-21T02:40:30.231Z,18.20
2017-06-21T02:42:58.564Z,18.20
2017-06-21T02:45:26.094Z,18.20
2017-06-21T02:47:53.619Z,18.10
2017-06-21T02:50:21.167Z,18.10
2017-06-21T02:52:48.696Z,18.10
2017-06-21T02:55:17.009Z,18.10
2017-06-21T02:57:44.540Z,18.10
2017-06-21T03:00:12.864Z,18.00
2017-06-21T03:02:41.159Z,18.00
2017-06-21T03:05:08.695Z,18.00
2017-06-21T03:07:36.244Z,18.00
2017-06-21T03:10:03.769Z,17.90
2017-06-21T03:12:32.107Z,18.00
2017-06-21T03:15:11.614Z,17.90
2017-06-21T03:17:39.159Z,18.00
2017-06-21T03:20:07.452Z,17.90
2017-06-21T03:22:35.012Z,17.90
2017-06-21T03:25:02.536Z,18.00
2017-06-21T03:27:30.827Z,18.10
2017-06-21T03:29:58.375Z,18.10
2017-06-21T03:32:25.895Z,18.20
2017-06-21T03:34:53.445Z,18.20
2017-06-21T03:37:21.735Z,18.00
2017-06-21T03:39:49.288Z,18.00
2017-06-21T03:42:16.815Z,18.00
2017-06-21T03:44:44.362Z,18.00
2017-06-21T03:47:11.886Z,18.10
2017-06-21T03:49:39.415Z,18.20
2017-06-21T03:52:07.732Z,18.30
2017-06-21T03:54:35.259Z,18.30
2017-06-21T03:57:02.807Z,18.30
2017-06-21T03:59:30.335Z,18.40
2017-06-21T04:01:57.899Z,18.50
2017-06-21T04:04:25.428Z,18.50
2017-06-21T04:06:52.956Z,18.60
2017-06-21T04:09:21.271Z,18.60
2017-06-21T04:11:48.801Z,18.60
2017-06-21T04:14:17.117Z,18.70
2017-06-21T04:16:44.639Z,18.70
2017-06-21T04:19:12.948Z,18.80
2017-06-21T04:21:40.471Z,18.80
2017-06-21T04:24:08.034Z,18.90
2017-06-21T04:26:35.555Z,18.90
2017-06-21T04:29:03.859Z,19.00
2017-06-21T04:31:31.403Z,19.00
2017-06-21T04:33:58.931Z,19.00
2017-06-21T04:36:26.475Z,19.10
2017-06-21T04:38:54.001Z,19.30
2017-06-21T04:41:21.550Z,19.60
2017-06-21T04:43:49.631Z,20.00
2017-06-21T04:46:17.272Z,20.50
2017-06-21T04:48:46.163Z,20.80
2017-06-21T04:51:14.863Z,21.50
2017-06-21T04:53:43.191Z,21.90
2017-06-21T04:56:10.720Z,21.80
2017-06-21T04:58:39.032Z,22.40
2017-06-21T05:01:06.559Z,22.40
2017-06-21T05:03:34.875Z,23.00
2017-06-21T05:06:02.399Z,23.00
2017-06-21T05:08:29.943Z,23.40
2017-06-21T05:10:57.474Z,23.70
2017-06-21T05:13:25.006Z,24.00
2017-06-21T05:15:52.552Z,24.30
2017-06-21T05:18:20.083Z,24.50
2017-06-21T05:20:47.631Z,24.70
2017-06-21T05:23:15.156Z,24.80
2017-06-21T05:25:42.704Z,25.00
2017-06-21T05:28:10.231Z,25.20
2017-06-21T05:30:37.800Z,25.40
2017-06-21T05:33:05.323Z,25.60
2017-06-21T05:35:32.851Z,25.80
2017-06-21T05:38:00.395Z,26.00
2017-06-21T05:40:27.919Z,26.20
2017-06-21T05:42:55.464Z,26.30
2017-06-21T05:45:22.998Z,26.30
2017-06-21T05:47:51.323Z,26.00
2017-06-21T05:50:18.847Z,26.00
2017-06-21T05:52:46.400Z,26.00
2017-06-21T05:55:14.690Z,26.70
2017-06-21T05:57:42.239Z,26.60
2017-06-21T06:00:10.530Z,27.50
2017-06-21T06:02:38.063Z,27.40
2017-06-21T06:05:05.612Z,27.70
2017-06-21T06:07:33.138Z,27.80
2017-06-21T06:10:01.461Z,28.00
2017-06-21T06:12:28.995Z,28.00
2017-06-21T06:14:56.539Z,28.20
2017-06-21T06:17:24.067Z,28.50
2017-06-21T06:19:51.611Z,28.60
2017-06-21T06:22:19.140Z,28.80
2017-06-21T06:24:46.714Z,29.00
2017-06-21T06:27:15.007Z,29.20
2017-06-21T06:29:42.535Z,29.20
2017-06-21T06:32:10.084Z,29.30
2017-06-21T06:34:37.611Z,29.40
2017-06-21T06:37:05.155Z,29.30
2017-06-21T06:39:33.447Z,29.00
2017-06-21T06:42:01.766Z,28.90
2017-06-21T06:44:29.292Z,28.80
2017-06-21T06:46:56.835Z,28.50
2017-06-21T06:49:24.367Z,27.90
2017-06-21T06:51:51.930Z,27.40
2017-06-21T06:54:19.455Z,27.00
2017-06-21T06:56:46.986Z,26.80
2017-06-21T06:59:14.526Z,26.70
2017-06-21T07:01:42.051Z,26.60
2017-06-21T07:04:09.598Z,26.40
2017-06-21T07:06:37.125Z,26.10
2017-06-21T07:09:04.671Z,25.80
2017-06-21T07:11:32.195Z,25.50
2017-06-21T07:13:59.751Z,25.30
2017-06-21T07:16:28.050Z,24.90
2017-06-21T07:18:56.429Z,24.90
2017-06-21T07:21:23.960Z,24.90
2017-06-21T07:23:51.488Z,24.80
2017-06-21T07:26:19.035Z,24.70
2017-06-21T07:28:46.560Z,24.50
2017-06-21T07:31:14.112Z,24.40
2017-06-21T07:33:41.634Z,24.40
2017-06-21T07:36:09.185Z,24.40
2017-06-21T07:38:36.712Z,24.60
2017-06-21T07:41:05.026Z,25.20
2017-06-21T07:43:32.551Z,25.20
2017-06-21T07:46:00.079Z,25.50
2017-06-21T07:48:27.619Z,25.80
2017-06-21T07:50:55.143Z,26.20
2017-06-21T07:53:22.691Z,26.50
2017-06-21T07:55:50.978Z,26.40
2017-06-21T07:58:18.527Z,26.40
2017-06-21T08:00:46.052Z,26.60
2017-06-21T08:03:13.599Z,26.80
2017-06-21T08:05:41.132Z,26.90
2017-06-21T08:08:09.427Z,27.20
2017-06-21T08:10:36.976Z,27.20
2017-06-21T08:13:04.506Z,27.70
2017-06-21T08:15:32.055Z,28.20
2017-06-21T08:18:00.351Z,28.80
2017-06-21T08:20:27.896Z,28.80
2017-06-21T08:22:55.469Z,29.50
2017-06-21T08:25:23.030Z,30.10
2017-06-21T08:27:50.552Z,30.50
2017-06-21T08:30:18.080Z,30.70
2017-06-21T08:32:45.633Z,30.70
2017-06-21T08:35:13.931Z,31.40
2017-06-21T08:37:41.517Z,31.30
2017-06-21T08:40:09.045Z,31.60
2017-06-21T08:42:36.587Z,32.00
2017-06-21T08:45:04.109Z,32.50
2017-06-21T08:47:31.659Z,32.70
2017-06-21T08:49:59.205Z,32.50
2017-06-21T08:52:26.731Z,32.30
2017-06-21T08:54:54.279Z,32.30
2017-06-21T08:57:21.808Z,32.60
2017-06-21T08:59:50.119Z,33.10
2017-06-21T09:02:17.640Z,33.10
2017-06-21T09:04:45.170Z,33.20
2017-06-21T09:07:12.715Z,32.90
2017-06-21T09:09:40.245Z,32.90
2017-06-21T09:12:07.794Z,33.20
2017-06-21T09:14:35.324Z,33.70
2017-06-21T09:17:02.876Z,33.80
2017-06-21T09:19:30.401Z,34.00
2017-06-21T09:21:57.964Z,33.80
2017-06-21T09:24:25.491Z,33.60
2017-06-21T09:26:53.779Z,34.10
2017-06-21T09:29:21.328Z,34.10
2017-06-21T09:31:49.620Z,34.60
2017-06-21T09:34:17.183Z,34.60
2017-06-21T09:36:44.716Z,34.90
2017-06-21T09:39:12.247Z,34.60
2017-06-21T09:41:39.797Z,34.60
2017-06-21T09:44:07.327Z,34.40
2017-06-21T09:46:34.885Z,34.30
2017-06-21T09:49:03.184Z,33.80
2017-06-21T09:51:30.732Z,33.70
2017-06-21T09:53:58.262Z,34.00
2017-06-21T09:56:25.824Z,34.40
2017-06-21T09:58:53.352Z,34.70
2017-06-21T10:01:20.884Z,34.90
2017-06-21T10:03:48.430Z,34.90
2017-06-21T10:06:15.972Z,35.10
2017-06-21T10:08:43.523Z,35.40
2017-06-21T10:11:11.056Z,35.70
2017-06-21T10:13:38.624Z,36.00
2017-06-21T10:16:06.919Z,36.30
2017-06-21T10:18:35.210Z,36.80
2017-06-21T10:21:02.751Z,36.80
2017-06-21T10:23:30.278Z,37.10
2017-06-21T10:25:57.829Z,37.30
2017-06-21T10:28:25.356Z,37.50
2017-06-21T10:30:53.674Z,37.70
2017-06-21T10:33:21.195Z,37.70
2017-06-21T10:35:48.759Z,37.60
2017-06-21T10:38:16.282Z,37.60
2017-06-21T10:40:43.806Z,37.60
2017-06-21T10:43:11.356Z,37.50
2017-06-21T10:45:38.882Z,37.50
2017-06-21T10:48:06.428Z,37.60
2017-06-21T10:50:33.956Z,37.30
2017-06-21T10:53:01.503Z,37.30
2017-06-21T10:55:29.034Z,37.40
2017-06-21T10:57:56.587Z,37.60
2017-06-21T11:00:24.108Z,38.00
2017-06-21T11:02:51.634Z,38.00
2017-06-21T11:05:19.175Z,38.00
2017-06-21T11:07:47.467Z,38.20
2017-06-21T11:10:15.011Z,38.10
2017-06-21T11:12:42.533Z,38.20
2017-06-21T11:15:10.083Z,38.20
2017-06-21T11:17:37.611Z,38.10
2017-06-21T11:20:05.179Z,38.20
2017-06-21T11:22:32.698Z,38.00
2017-06-21T11:25:00.227Z,37.70
2017-06-21T11:27:27.777Z,37.70
2017-06-21T11:29:55.307Z,38.00
2017-06-21T11:32:22.869Z,37.70
2017-06-21T11:34:50.410Z,37.10
2017-06-21T11:37:17.954Z,36.90
2017-06-21T11:39:45.479Z,36.70
2017-06-21T11:42:13.811Z,35.90
2017-06-21T11:44:41.339Z,35.90
2017-06-21T11:47:08.868Z,35.70
2017-06-21T11:49:36.411Z,35.70
2017-06-21T11:52:03.940Z,36.00
2017-06-21T11:54:31.491Z,36.40
2017-06-21T11:56:59.031Z,36.30
2017-06-21T11:59:27.347Z,36.00
2017-06-21T12:01:54.870Z,36.00
2017-06-21T12:04:23.203Z,36.00
2017-06-21T12:06:50.726Z,36.00
2017-06-21T12:09:18.254Z,36.00
2017-06-21T12:11:45.804Z,35.80
2017-06-21T12:14:13.335Z,35.80
2017-06-21T12:16:41.648Z,36.00
2017-06-21T12:19:09.180Z,36.00
2017-06-21T12:21:37.499Z,35.90
2017-06-21T12:24:05.024Z,35.90
2017-06-21T12:26:32.580Z,35.60
2017-06-21T12:29:00.124Z,35.60
2017-06-21T12:31:27.655Z,35.70
2017-06-21T12:33:55.975Z,36.20
2017-06-21T12:36:23.500Z,36.20
2017-06-21T12:38:51.810Z,36.50
2017-06-21T12:41:19.343Z,36.50
2017-06-21T12:43:46.892Z,36.70
2017-06-21T12:46:14.420Z,37.00
2017-06-21T12:48:42.748Z,37.50
2017-06-21T12:51:10.275Z,37.50
2017-06-21T12:53:37.803Z,37.90
2017-06-21T12:56:05.351Z,38.00
2017-06-21T12:58:32.875Z,38.10
2017-06-21T13:01:01.189Z,37.80
2017-06-21T13:03:28.719Z,37.80
2017-06-21T13:05:56.274Z,37.80
2017-06-21T13:08:23.807Z,38.00
2017-06-21T13:10:51.376Z,38.00
2017-06-21T13:13:18.912Z,37.50
2017-06-21T13:15:46.439Z,37.00
2017-06-21T13:18:13.983Z,36.70
2017-06-21T13:20:41.516Z,36.00
2017-06-21T13:23:09.065Z,35.60
2017-06-21T13:25:36.592Z,35.50
2017-06-21T13:28:04.143Z,35.40
2017-06-21T13:30:31.676Z,35.60
2017-06-21T13:32:59.207Z,35.60
2017-06-21T13:35:26.798Z,35.80
2017-06-21T13:37:54.335Z,35.90
2017-06-21T13:40:21.885Z,36.00
2017-06-21T13:42:49.414Z,36.10
2017-06-21T13:45:16.972Z,36.00
2017-06-21T13:47:44.502Z,36.00
2017-06-21T13:50:12.031Z,36.10
2017-06-21T13:52:39.578Z,36.10
2017-06-21T13:55:07.103Z,36.10
2017-06-21T13:57:34.652Z,36.30
2017-06-21T14:00:02.184Z,36.40
2017-06-21T14:02:30.500Z,36.60
2017-06-21T14:04:58.031Z,36.50
2017-06-21T14:07:25.591Z,36.70
2017-06-21T14:09:53.119Z,36.50
2017-06-21T14:12:20.651Z,36.30
2017-06-21T14:14:48.195Z,36.10
2017-06-21T14:17:15.719Z,36.30
2017-06-21T14:19:43.264Z,36.40
2017-06-21T14:22:10.796Z,36.30
2017-06-21T14:24:38.359Z,35.90
2017-06-21T14:27:05.885Z,35.90
2017-06-21T14:29:33.406Z,35.70
2017-06-21T14:32:01.720Z,35.30
2017-06-21T14:34:29.246Z,35.30
2017-06-21T14:36:56.794Z,35.40
2017-06-21T14:39:24.323Z,35.30
2017-06-21T14:41:51.884Z,35.30
2017-06-21T14:44:19.416Z,35.30
2017-06-21T14:46:46.939Z,35.30
2017-06-21T14:49:14.490Z,35.20
2017-06-21T14:51:42.015Z,35.10
2017-06-21T14:54:09.558Z,34.70
2017-06-21T14:56:37.084Z,34.30
2017-06-21T14:59:04.631Z,34.20
2017-06-21T15:01:32.168Z,34.20
2017-06-21T15:04:00.504Z,34.40
2017-06-21T15:06:28.034Z,34.30
2017-06-21T15:08:55.571Z,34.40
2017-06-21T15:11:23.119Z,34.40
2017-06-21T15:13:50.652Z,34.10
2017-06-21T15:16:18.199Z,34.00
2017-06-21T15:18:45.723Z,34.00
2017-06-21T15:21:13.263Z,34.00
2017-06-21T15:23:40.784Z,34.20
2017-06-21T15:26:08.331Z,34.10
2017-06-21T15:28:36.623Z,33.60
2017-06-21T15:31:04.187Z,33.60
2017-06-21T15:33:31.723Z,33.60
2017-06-21T15:35:59.255Z,33.70
2017-06-21T15:38:26.802Z,33.80
2017-06-21T15:40:54.327Z,33.70
2017-06-21T15:43:21.874Z,33.60
2017-06-21T15:45:49.399Z,33.60
2017-06-21T15:48:16.944Z,33.60
2017-06-21T15:50:44.467Z,33.60
2017-06-21T15:53:12.022Z,33.60
2017-06-21T15:55:40.320Z,33.50
2017-06-21T15:58:07.852Z,33.50
2017-06-21T16:00:35.410Z,33.40
2017-06-21T16:03:02.936Z,33.30
2017-06-21T16:05:30.482Z,33.20
2017-06-21T16:07:58.007Z,33.20
2017-06-21T16:10:25.552Z,33.10
2017-06-21T16:12:53.079Z,33.00
2017-06-21T16:15:20.631Z,33.00
2017-06-21T16:17:48.155Z,32.80
2017-06-21T16:20:15.711Z,32.60
2017-06-21T16:22:43.235Z,32.50
2017-06-21T16:25:10.759Z,32.40
2017-06-21T16:27:38.300Z,32.30
2017-06-21T16:30:05.824Z,32.20
2017-06-21T16:32:33.366Z,32.10
2017-06-21T16:35:00.891Z,31.90
2017-06-21T16:37:28.451Z,31.80
2017-06-21T16:39:55.983Z,31.60
2017-06-21T16:42:23.508Z,31.30
2017-06-21T16:44:51.056Z,31.10
2017-06-21T16:47:18.587Z,31.00
2017-06-21T16:49:46.131Z,30.90
2017-06-21T16:52:13.662Z,30.80
2017-06-21T16:54:41.202Z,30.70
2017-06-21T16:57:08.727Z,30.70
2017-06-21T16:59:36.291Z,30.70
2017-06-21T17:02:03.824Z,30.50
2017-06-21T17:04:31.348Z,30.10
2017-06-21T17:06:59.661Z,29.50
2017-06-21T17:09:27.950Z,29.30
2017-06-21T17:11:55.491Z,29.30
2017-06-21T17:14:23.783Z,29.30
2017-06-21T17:16:52.099Z,29.30
2017-06-21T17:19:19.626Z,29.20
2017-06-21T17:21:47.154Z,29.30
2017-06-21T17:24:14.705Z,29.20
2017-06-21T17:26:42.236Z,29.10
2017-06-21T17:29:09.788Z,29.00
2017-06-21T17:31:37.320Z,28.80
2017-06-21T17:34:04.884Z,28.70
2017-06-21T17:36:32.412Z,28.50
2017-06-21T17:38:59.940Z,28.30
2017-06-21T17:41:28.252Z,28.10
2017-06-21T17:43:55.779Z,28.00
2017-06-21T17:46:24.092Z,27.90
2017-06-21T17:48:51.618Z,27.90
2017-06-21T17:51:19.163Z,27.90
2017-06-21T17:53:46.687Z,27.90
2017-06-21T17:56:14.244Z,27.80
2017-06-21T17:58:41.767Z,27.80
2017-06-21T18:01:10.058Z,27.70
2017-06-21T18:03:37.606Z,27.60
2017-06-21T18:06:05.131Z,27.60
2017-06-21T18:08:32.680Z,27.50
2017-06-21T18:11:00.208Z,27.40
2017-06-21T18:13:27.771Z,27.30
2017-06-21T18:15:55.296Z,27.20
2017-06-21T18:18:22.825Z,27.10
2017-06-21T18:20:50.371Z,27.00
2017-06-21T18:23:18.667Z,26.80
2017-06-21T18:25:46.230Z,26.80
2017-06-21T18:28:13.763Z,26.70
2017-06-21T18:30:41.322Z,26.70
2017-06-21T18:33:08.848Z,26.50
2017-06-21T18:35:36.371Z,26.50
2017-06-21T18:38:03.919Z,26.40
2017-06-21T18:40:31.443Z,26.20
2017-06-21T18:42:59.008Z,26.10
2017-06-21T18:45:26.532Z,26.10
2017-06-21T18:47:54.060Z,26.00
2017-06-21T18:50:21.602Z,26.10
2017-06-21T18:52:49.127Z,26.00
2017-06-21T18:55:16.671Z,25.70
2017-06-21T18:57:44.208Z,25.50
2017-06-21T19:00:12.535Z,25.30
2017-06-21T19:02:40.060Z,25.20
2017-06-21T19:05:07.588Z,25.10
2017-06-21T19:07:35.899Z,24.90
2017-06-21T19:10:03.423Z,24.90
2017-06-21T19:12:30.968Z,24.80
2017-06-21T19:14:58.522Z,24.80
2017-06-21T19:17:26.085Z,24.60
2017-06-21T19:19:53.614Z,24.60
2017-06-21T19:22:21.143Z,24.50
2017-06-21T19:24:48.687Z,24.40
2017-06-21T19:27:16.212Z,24.40
2017-06-21T19:29:44.559Z,24.20
2017-06-21T19:32:12.084Z,24.20
2017-06-21T19:34:39.638Z,24.20
2017-06-21T19:37:07.164Z,24.20
2017-06-21T19:39:34.691Z,24.10
2017-06-21T19:42:02.232Z,24.00
2017-06-21T19:44:30.529Z,23.80
2017-06-21T19:46:58.844Z,23.70
2017-06-21T19:49:27.135Z,23.70
2017-06-21T19:51:54.684Z,23.70
2017-06-21T19:54:22.975Z,23.60
2017-06-21T19:56:50.498Z,23.60
2017-06-21T19:59:18.047Z,23.60
2017-06-21T20:01:46.334Z,23.50
2017-06-21T20:04:14.646Z,23.40
2017-06-21T20:06:42.934Z,23.30
2017-06-21T20:09:11.264Z,23.20
2017-06-21T20:11:38.792Z,23.20
2017-06-21T20:14:06.321Z,23.10
2017-06-21T20:16:33.874Z,23.10
2017-06-21T20:19:01.402Z,22.90
2017-06-21T20:21:28.942Z,22.80
2017-06-21T20:23:56.467Z,22.80
2017-06-21T20:26:24.012Z,22.70
2017-06-21T20:28:51.539Z,22.70
2017-06-21T20:31:19.097Z,22.60
2017-06-21T20:33:46.623Z,22.50
2017-06-21T20:36:14.916Z,22.10
2017-06-21T20:38:42.459Z,22.10
2017-06-21T20:41:09.988Z,22.00
2017-06-21T20:43:37.536Z,22.00
2017-06-21T20:46:05.059Z,22.00
2017-06-21T20:48:32.619Z,22.00
2017-06-21T20:51:00.487Z,21.80
2017-06-21T20:53:28.039Z,21.60
2017-06-21T20:55:55.598Z,21.50
2017-06-21T20:58:23.132Z,21.40
2017-06-21T21:00:50.681Z,21.40
2017-06-21T21:03:18.210Z,21.30
2017-06-21T21:05:45.770Z,21.20
2017-06-21T21:08:13.298Z,21.00
2017-06-21T21:10:41.592Z,20.80
2017-06-21T21:13:09.135Z,20.80
2017-06-21T21:15:37.431Z,20.90
2017-06-21T21:18:04.974Z,20.80
2017-06-21T21:20:32.503Z,20.90
2017-06-21T21:23:00.831Z,21.00
2017-06-21T21:25:28.364Z,21.00
2017-06-21T21:27:55.891Z,21.00
2017-06-21T21:30:23.435Z,20.90
2017-06-21T21:32:50.956Z,20.80
2017-06-21T21:35:18.500Z,20.80
2017-06-21T21:37:46.024Z,20.80
2017-06-21T21:40:14.347Z,20.70
2017-06-21T21:42:41.871Z,20.70
2017-06-21T21:45:09.395Z,20.60
2017-06-21T21:47:36.943Z,20.40
2017-06-21T21:50:04.478Z,20.30
2017-06-21T21:52:32.023Z,20.20
2017-06-21T21:54:59.551Z,19.80
2017-06-21T21:57:27.112Z,19.60
2017-06-21T21:59:55.402Z,19.50
2017-06-21T22:02:22.936Z,19.50
2017-06-21T22:04:50.482Z,19.50
2017-06-21T22:07:18.004Z,19.40
2017-06-21T22:09:45.547Z,19.30
2017-06-21T22:12:13.839Z,19.10
2017-06-21T22:14:41.399Z,19.00
2017-06-21T22:17:08.923Z,19.10
2017-06-21T22:19:36.446Z,19.10
2017-06-21T22:22:03.992Z,19.20
2017-06-21T22:24:31.518Z,19.30
2017-06-21T22:26:59.063Z,19.40
2017-06-21T22:29:26.593Z,19.40
2017-06-21T22:31:54.151Z,19.30
2017-06-21T22:34:21.676Z,19.10
2017-06-21T22:36:49.971Z,18.60
2017-06-21T22:39:17.515Z,18.60
2017-06-21T22:41:45.035Z,18.50
2017-06-21T22:44:13.343Z,18.60
2017-06-21T22:46:40.871Z,18.50
2017-06-21T22:49:08.434Z,18.70
2017-06-21T22:51:35.964Z,18.60
2017-06-21T22:54:03.499Z,18.40
2017-06-21T22:56:31.049Z,18.40
2017-06-21T22:58:58.576Z,18.50
2017-06-21T23:01:26.122Z,18.50
2017-06-21T23:03:53.650Z,18.60
2017-06-21T23:06:21.207Z,18.70
2017-06-21T23:08:48.735Z,18.70
2017-06-21T23:11:16.259Z,18.80
2017-06-21T23:13:43.804Z,18.80
2017-06-21T23:16:11.331Z,18.80
2017-06-21T23:18:38.882Z,18.70
2017-06-21T23:21:06.406Z,18.50
2017-06-21T23:23:34.721Z,18.20
2017-06-21T23:26:03.007Z,18.10
2017-06-21T23:28:30.531Z,18.10
2017-06-21T23:30:58.082Z,18.20
2017-06-21T23:33:25.603Z,18.20
2017-06-21T23:35:53.146Z,18.20
2017-06-21T23:38:21.440Z,18.30
2017-06-21T23:40:49.000Z,18.20
2017-06-21T23:43:16.527Z,18.30
2017-06-21T23:45:44.051Z,18.20
2017-06-21T23:48:12.359Z,18.00
2017-06-21T23:50:39.884Z,18.00
2017-06-21T23:53:07.429Z,18.00
2017-06-21T23:55:34.953Z,17.90
2017-06-21T23:58:02.508Z,17.80
